createdAt,value
2022-08-25T00:01:51.994Z,3.10
2022-08-25T00:04:19.770Z,3.13
2022-08-25T00:06:48.526Z,3.38
2022-08-25T00:09:20.205Z,3.40
2022-08-25T00:11:49.223Z,3.30
2022-08-25T00:14:21.588Z,3.40
2022-08-25T00:16:48.674Z,3.38
2022-08-25T00:19:21.057Z,3.33
2022-08-25T00:21:48.515Z,4.22
2022-08-25T00:24:18.146Z,3.50
2022-08-25T00:26:50.511Z,4.75
2022-08-25T00:29:17.802Z,3.47
2022-08-25T00:31:45.639Z,3.70
2022-08-25T00:34:19.149Z,3.60
2022-08-25T00:36:47.180Z,3.90
2022-08-25T00:39:14.307Z,3.38
2022-08-25T00:41:43.152Z,3.78
2022-08-25T00:44:13.119Z,3.58
2022-08-25T00:46:47.120Z,3.53
2022-08-25T00:49:47.610Z,3.42
2022-08-25T00:52:20.183Z,3.35
2022-08-25T00:54:55.917Z,3.92
2022-08-25T00:57:51.838Z,3.53
2022-08-25T01:00:30.346Z,3.70
2022-08-25T01:02:57.984Z,4.20
2022-08-25T01:05:26.950Z,4.70
2022-08-25T01:07:57.507Z,3.60
2022-08-25T01:10:27.144Z,4.90
2022-08-25T01:13:00.259Z,3.75
2022-08-25T01:15:28.142Z,4.18
2022-08-25T01:17:57.313Z,4.07
2022-08-25T01:20:29.718Z,4.18
2022-08-25T01:22:57.902Z,4.32
2022-08-25T01:25:42.557Z,3.95
2022-08-25T01:28:09.984Z,5.70
2022-08-25T01:30:37.824Z,4.00
2022-08-25T01:33:07.536Z,3.70
2022-08-25T01:35:35.937Z,3.60
2022-08-25T01:38:06.844Z,3.58
2022-08-25T01:40:35.182Z,4.95
2022-08-25T01:43:11.693Z,4.10
2022-08-25T01:45:41.367Z,4.00
2022-08-25T01:48:09.571Z,4.13
2022-08-25T01:50:37.257Z,4.32
2022-08-25T01:53:08.610Z,3.53
2022-08-25T01:55:51.546Z,3.60
2022-08-25T01:58:33.834Z,3.25
2022-08-25T02:01:04.353Z,4.18
2022-08-25T02:03:31.482Z,3.53
2022-08-25T02:06:01.376Z,3.35
2022-08-25T02:08:31.068Z,3.58
2022-08-25T02:10:58.042Z,3.90
2022-08-25T02:13:31.040Z,3.42
2022-08-25T02:16:00.962Z,3.45
2022-08-25T02:18:27.956Z,4.10
2022-08-25T02:20:54.817Z,3.55
2022-08-25T02:23:21.923Z,5.03
2022-08-25T02:25:48.854Z,3.80
2022-08-25T02:28:16.155Z,3.42
2022-08-25T02:30:43.585Z,4.00
2022-08-25T02:33:10.978Z,3.75
2022-08-25T02:35:38.508Z,3.22
2022-08-25T02:38:06.506Z,4.35
2022-08-25T02:40:34.173Z,3.60
2022-08-25T02:43:01.016Z,3.70
2022-08-25T02:45:28.267Z,5.13
2022-08-25T02:47:55.771Z,4.05
2022-08-25T02:50:22.759Z,3.95
2022-08-25T02:52:50.784Z,3.90
2022-08-25T02:55:18.421Z,3.70
2022-08-25T02:57:45.386Z,4.38
2022-08-25T03:00:14.283Z,4.10
2022-08-25T03:02:41.776Z,4.03
2022-08-25T03:05:09.729Z,4.32
2022-08-25T03:07:38.459Z,4.00
2022-08-25T03:10:13.501Z,3.88
2022-08-25T03:12:41.651Z,4.10
2022-08-25T03:15:13.426Z,4.13
2022-08-25T03:17:40.913Z,3.90
2022-08-25T03:20:13.141Z,4.18
2022-08-25T03:22:40.252Z,4.13
2022-08-25T03:25:27.362Z,4.10
2022-08-25T03:27:54.267Z,5.03
2022-08-25T03:30:21.473Z,4.93
2022-08-25T03:32:48.696Z,3.85
2022-08-25T03:35:15.473Z,4.13
2022-08-25T03:37:42.518Z,4.22
2022-08-25T03:40:14.747Z,4.43
2022-08-25T03:42:45.468Z,4.17
2022-08-25T03:45:14.548Z,6.38
2022-08-25T03:47:42.113Z,4.10
2022-08-25T03:50:11.122Z,4.68
2022-08-25T03:52:42.369Z,4.28
2022-08-25T03:55:13.382Z,4.57
2022-08-25T03:57:40.410Z,4.25
2022-08-25T04:00:09.849Z,4.10
2022-08-25T04:02:40.795Z,5.53
2022-08-25T04:05:17.597Z,4.28
2022-08-25T04:07:44.496Z,5.05
2022-08-25T04:10:12.506Z,4.68
2022-08-25T04:12:39.610Z,4.13
2022-08-25T04:15:08.090Z,4.20
2022-08-25T04:17:38.929Z,4.20
2022-08-25T04:20:08.812Z,4.53
2022-08-25T04:22:36.989Z,4.75
2022-08-25T04:25:05.863Z,4.00
2022-08-25T04:27:32.734Z,4.30
2022-08-25T04:30:00.077Z,4.13
2022-08-25T04:32:28.365Z,4.30
2022-08-25T04:34:55.249Z,6.63
2022-08-25T04:37:22.099Z,4.20
2022-08-25T04:39:49.068Z,4.78
2022-08-25T04:42:16.200Z,4.28
2022-08-25T04:44:43.115Z,4.13
2022-08-25T04:47:11.033Z,4.80
2022-08-25T04:49:37.985Z,4.07
2022-08-25T04:52:04.967Z,3.95
2022-08-25T04:54:40.413Z,4.35
2022-08-25T04:57:07.466Z,4.60
2022-08-25T04:59:34.365Z,5.75
2022-08-25T05:02:03.090Z,4.70
2022-08-25T05:04:31.686Z,4.93
2022-08-25T05:06:59.367Z,5.07
2022-08-25T05:09:27.593Z,4.20
2022-08-25T05:11:55.313Z,4.30
2022-08-25T05:14:26.205Z,4.18
2022-08-25T05:16:54.896Z,4.38
2022-08-25T05:19:22.741Z,4.25
2022-08-25T05:21:49.742Z,4.78
2022-08-25T05:24:16.781Z,4.40
2022-08-25T05:26:43.867Z,5.32
2022-08-25T05:29:11.729Z,4.72
2022-08-25T05:31:43.214Z,4.85
2022-08-25T05:34:12.100Z,4.47
2022-08-25T05:36:43.155Z,4.60
2022-08-25T05:39:11.074Z,6.15
2022-08-25T05:41:38.603Z,4.30
2022-08-25T05:44:05.852Z,5.30
2022-08-25T05:46:32.987Z,4.38
2022-08-25T05:49:00.036Z,5.30
2022-08-25T05:51:27.275Z,4.93
2022-08-25T05:53:54.292Z,5.97
2022-08-25T05:56:21.830Z,4.82
2022-08-25T05:58:49.103Z,5.90
2022-08-25T06:01:40.642Z,6.53
2022-08-25T06:04:10.518Z,5.38
2022-08-25T06:06:37.489Z,6.60
2022-08-25T06:09:05.173Z,5.88
2022-08-25T06:11:32.046Z,6.00
2022-08-25T06:13:58.861Z,5.15
2022-08-25T06:16:25.857Z,6.25
2022-08-25T06:18:53.066Z,5.38
2022-08-25T06:21:20.811Z,5.15
2022-08-25T06:23:49.183Z,4.45
2022-08-25T06:26:21.055Z,5.50
2022-08-25T06:28:50.660Z,5.45
2022-08-25T06:31:17.735Z,5.10
2022-08-25T06:33:45.213Z,6.57
2022-08-25T06:36:12.486Z,6.35
2022-08-25T06:38:39.756Z,6.25
2022-08-25T06:41:08.659Z,6.10
2022-08-25T06:43:35.679Z,6.07
2022-08-25T06:46:14.660Z,5.90
2022-08-25T06:48:42.118Z,6.88
2022-08-25T06:51:14.152Z,6.63
2022-08-25T06:53:43.015Z,8.80
2022-08-25T06:56:11.253Z,7.82
2022-08-25T06:58:39.076Z,6.60
2022-08-25T07:01:20.523Z,8.13
2022-08-25T07:03:49.086Z,9.77
2022-08-25T07:06:19.894Z,8.23
2022-08-25T07:08:47.444Z,11.00
2022-08-25T07:11:16.190Z,10.40
2022-08-25T07:13:44.946Z,10.00
2022-08-25T07:16:11.970Z,8.25
2022-08-25T07:18:39.020Z,7.63
2022-08-25T07:21:08.892Z,8.00
2022-08-25T07:23:36.830Z,9.18
2022-08-25T07:26:36.256Z,6.97
2022-08-25T07:29:02.035Z,7.47
2022-08-25T07:31:30.432Z,7.50
2022-08-25T07:34:16.681Z,11.60
2022-08-25T07:36:44.475Z,6.82
2022-08-25T07:39:11.962Z,6.55
2022-08-25T07:41:41.674Z,6.68
2022-08-25T07:44:11.079Z,7.28
2022-08-25T07:46:38.802Z,6.95
2022-08-25T07:49:09.234Z,6.82
2022-08-25T07:52:04.185Z,7.38
2022-08-25T07:54:33.930Z,7.97
2022-08-25T07:57:06.368Z,4.75
2022-08-25T07:59:39.184Z,4.80
2022-08-25T08:02:18.327Z,5.55
2022-08-25T08:04:49.422Z,6.18
2022-08-25T08:07:22.928Z,5.93
2022-08-25T08:09:56.190Z,5.03
2022-08-25T08:12:33.979Z,3.85
2022-08-25T08:15:01.339Z,4.03
2022-08-25T08:17:28.599Z,5.65
2022-08-25T08:19:55.659Z,4.80
2022-08-25T08:22:23.194Z,4.07
2022-08-25T08:24:54.636Z,4.32
2022-08-25T08:27:24.385Z,5.05
2022-08-25T08:29:52.434Z,3.25
2022-08-25T08:32:19.847Z,4.38
2022-08-25T08:34:51.216Z,3.40
2022-08-25T08:37:18.927Z,4.05
2022-08-25T08:39:51.243Z,5.15
2022-08-25T08:42:39.869Z,6.25
2022-08-25T08:45:17.379Z,3.92
2022-08-25T08:48:07.171Z,14.35
2022-08-25T08:51:01.016Z,4.20
2022-08-25T08:53:40.727Z,9.80
2022-08-25T08:56:12.425Z,5.60
2022-08-25T08:59:06.045Z,13.30
2022-08-25T09:04:43.759Z,6.43
2022-08-25T09:07:17.229Z,3.47
2022-08-25T09:09:47.811Z,6.53
2022-08-25T09:12:47.954Z,3.63
2022-08-25T09:15:15.129Z,5.18
2022-08-25T09:17:54.442Z,3.80
2022-08-25T09:20:52.893Z,4.22
2022-08-25T09:23:57.084Z,4.43
2022-08-25T09:26:47.056Z,3.92
2022-08-25T09:29:28.298Z,3.70
2022-08-25T09:31:58.769Z,4.05
2022-08-25T09:34:32.487Z,2.75
2022-08-25T09:37:00.173Z,3.92
2022-08-25T09:39:27.994Z,4.07
2022-08-25T09:42:00.283Z,3.35
2022-08-25T09:44:33.448Z,4.00
2022-08-25T09:47:02.857Z,5.07
2022-08-25T09:49:45.378Z,4.40
2022-08-25T09:52:38.587Z,4.47
2022-08-25T09:55:08.256Z,4.97
2022-08-25T09:57:44.104Z,5.35
2022-08-25T10:00:28.562Z,3.40
2022-08-25T10:03:22.685Z,3.60
2022-08-25T10:06:00.887Z,3.83
2022-08-25T10:08:34.854Z,6.00
2022-08-25T10:11:09.012Z,3.78
2022-08-25T10:14:04.500Z,3.67
2022-08-25T10:16:36.010Z,3.63
2022-08-25T10:19:35.596Z,4.82
2022-08-25T10:22:06.072Z,3.88
2022-08-25T10:24:35.077Z,3.72
2022-08-25T10:27:09.783Z,3.58
2022-08-25T10:29:55.634Z,4.22
2022-08-25T10:32:54.061Z,4.32
2022-08-25T10:35:50.807Z,4.45
2022-08-25T10:38:27.176Z,4.55
2022-08-25T10:41:04.944Z,3.50
2022-08-25T10:43:52.795Z,3.47
2022-08-25T10:46:28.753Z,3.65
2022-08-25T10:49:39.430Z,4.15
2022-08-25T10:52:19.155Z,4.00
2022-08-25T10:55:03.780Z,3.10
2022-08-25T10:57:48.919Z,3.10
2022-08-25T11:00:23.093Z,3.08
2022-08-25T11:03:18.815Z,3.83
2022-08-25T11:06:07.021Z,3.28
2022-08-25T11:08:50.114Z,2.97
2022-08-25T11:11:42.676Z,3.72
2022-08-25T11:14:18.581Z,3.03
2022-08-25T11:16:53.953Z,3.42
2022-08-25T11:19:26.824Z,4.00
2022-08-25T11:22:14.752Z,3.17
2022-08-25T11:24:51.190Z,3.30
2022-08-25T11:27:32.491Z,2.95
2022-08-25T11:30:06.120Z,3.30
2022-08-25T11:32:35.653Z,3.55
2022-08-25T11:35:07.082Z,2.90
2022-08-25T11:37:37.524Z,5.07
2022-08-25T11:40:27.815Z,3.83
2022-08-25T11:43:25.300Z,5.85
2022-08-25T11:46:04.862Z,3.50
2022-08-25T11:48:51.925Z,3.53
2022-08-25T11:51:31.475Z,2.33
2022-08-25T11:54:19.726Z,4.00
2022-08-25T11:57:05.681Z,3.17
2022-08-25T11:59:51.517Z,4.28
2022-08-25T12:02:43.465Z,3.03
2022-08-25T12:05:19.848Z,4.53
2022-08-25T12:08:11.374Z,3.58
2022-08-25T12:11:07.216Z,3.53
2022-08-25T12:13:51.270Z,3.17
2022-08-25T12:16:36.584Z,3.35
2022-08-25T12:19:22.329Z,3.50
2022-08-25T12:21:51.211Z,4.82
2022-08-25T12:24:40.022Z,3.70
2022-08-25T12:27:33.597Z,2.63
2022-08-25T12:30:23.264Z,2.80
2022-08-25T12:33:32.829Z,3.15
2022-08-25T12:36:06.444Z,3.85
2022-08-25T12:38:52.868Z,3.15
2022-08-25T12:41:26.119Z,3.75
2022-08-25T12:44:14.719Z,5.45
2022-08-25T12:46:44.731Z,3.20
2022-08-25T12:49:29.025Z,3.58
2022-08-25T12:57:29.497Z,4.05
2022-08-25T12:59:58.635Z,3.58
2022-08-25T13:02:51.683Z,3.15
2022-08-25T13:05:45.923Z,4.72
2022-08-25T13:08:24.561Z,3.15
2022-08-25T13:11:14.879Z,3.45
2022-08-25T13:14:03.517Z,3.35
2022-08-25T13:16:31.139Z,4.40
2022-08-25T13:19:01.618Z,2.67
2022-08-25T13:21:31.094Z,2.90
2022-08-25T13:24:05.149Z,3.15
2022-08-25T13:26:37.715Z,2.60
2022-08-25T13:29:22.651Z,3.00
2022-08-25T13:32:09.254Z,3.33
2022-08-25T13:34:42.634Z,3.78
2022-08-25T13:37:31.244Z,3.33
2022-08-25T13:40:20.160Z,3.33
2022-08-25T13:42:56.281Z,4.22
2022-08-25T13:45:30.092Z,5.13
2022-08-25T13:50:26.535Z,5.07
2022-08-25T13:53:21.665Z,3.85
2022-08-25T13:55:53.137Z,3.58
2022-08-25T13:58:38.978Z,3.40
2022-08-25T14:01:48.247Z,3.78
2022-08-25T14:04:31.234Z,3.67
2022-08-25T14:07:22.523Z,3.28
2022-08-25T14:10:00.144Z,3.17
2022-08-25T14:12:41.885Z,5.50
2022-08-25T14:15:12.000Z,3.60
2022-08-25T14:17:41.405Z,4.90
2022-08-25T14:20:23.679Z,4.65
2022-08-25T14:22:57.955Z,3.65
2022-08-25T14:25:27.654Z,3.95
2022-08-25T14:28:13.694Z,3.60
2022-08-25T14:30:46.413Z,3.25
2022-08-25T14:33:15.070Z,3.63
2022-08-25T14:35:46.169Z,3.90
2022-08-25T14:38:14.947Z,4.07
2022-08-25T14:40:42.136Z,3.40
2022-08-25T14:43:09.538Z,3.88
2022-08-25T14:45:40.065Z,5.13
2022-08-25T14:48:24.156Z,4.15
2022-08-25T14:50:52.612Z,3.30
2022-08-25T14:53:19.485Z,4.05
2022-08-25T14:55:46.408Z,3.15
2022-08-25T14:58:13.286Z,3.45
2022-08-25T15:00:44.969Z,4.00
2022-08-25T15:03:25.424Z,4.55
2022-08-25T15:05:52.375Z,4.13
2022-08-25T15:08:38.910Z,4.03
2022-08-25T15:11:08.904Z,3.85
2022-08-25T15:13:36.728Z,3.72
2022-08-25T15:16:04.392Z,3.42
2022-08-25T15:18:31.340Z,3.90
2022-08-25T15:20:58.324Z,4.80
2022-08-25T15:23:25.187Z,4.38
2022-08-25T15:25:54.795Z,2.92
2022-08-25T15:28:22.518Z,2.90
2022-08-25T15:30:50.222Z,3.10
2022-08-25T15:33:17.960Z,3.10
2022-08-25T15:35:45.213Z,3.13
2022-08-25T15:38:13.036Z,3.78
2022-08-25T15:40:40.347Z,4.80
2022-08-25T15:43:07.529Z,4.45
2022-08-25T15:45:36.308Z,5.25
2022-08-25T15:48:09.356Z,4.30
2022-08-25T15:50:40.713Z,4.45
2022-08-25T15:53:08.338Z,3.40
2022-08-25T15:55:39.763Z,3.85
2022-08-25T15:58:07.102Z,3.90
2022-08-25T16:00:39.527Z,3.90
2022-08-25T16:03:08.063Z,5.20
2022-08-25T16:05:37.288Z,3.58
2022-08-25T16:08:04.863Z,3.45
2022-08-25T16:10:36.308Z,3.05
2022-08-25T16:13:04.698Z,4.63
2022-08-25T16:15:33.135Z,4.00
2022-08-25T16:18:01.559Z,4.72
2022-08-25T16:20:34.160Z,4.63
2022-08-25T16:23:02.856Z,3.95
2022-08-25T16:25:30.989Z,3.60
2022-08-25T16:27:57.931Z,4.30
2022-08-25T16:30:25.341Z,3.08
2022-08-25T16:32:52.264Z,4.18
2022-08-25T16:35:19.367Z,3.67
2022-08-25T16:37:46.681Z,3.30
2022-08-25T16:40:17.832Z,3.60
2022-08-25T16:42:45.512Z,2.85
2022-08-25T16:45:12.465Z,2.90
2022-08-25T16:47:39.648Z,3.40
2022-08-25T16:50:10.998Z,2.90
2022-08-25T16:52:58.323Z,2.55
2022-08-25T16:55:28.087Z,2.40
2022-08-25T16:58:06.819Z,2.35
2022-08-25T17:00:37.294Z,2.20
2022-08-25T17:03:05.155Z,2.20
2022-08-25T17:05:33.872Z,2.17
2022-08-25T17:08:19.677Z,2.40
2022-08-25T17:10:47.203Z,3.13
2022-08-25T17:13:14.575Z,2.75
2022-08-25T17:15:52.317Z,2.38
2022-08-25T17:18:19.455Z,2.88
2022-08-25T17:20:48.774Z,2.47
2022-08-25T17:23:18.284Z,2.20
2022-08-25T17:25:50.437Z,2.75
2022-08-25T17:28:18.041Z,2.50
2022-08-25T17:30:45.855Z,2.40
2022-08-25T17:33:14.152Z,2.33
2022-08-25T17:35:44.802Z,3.10
2022-08-25T17:38:13.047Z,2.35
2022-08-25T17:40:40.621Z,2.05
2022-08-25T17:43:09.122Z,2.10
2022-08-25T17:45:37.260Z,2.20
2022-08-25T17:48:07.843Z,2.47
2022-08-25T17:50:36.955Z,2.50
2022-08-25T17:53:09.289Z,2.55
2022-08-25T17:58:22.804Z,2.30
2022-08-25T18:00:49.648Z,2.20
2022-08-25T18:03:16.508Z,2.50
2022-08-25T18:05:45.048Z,2.67
2022-08-25T18:08:14.709Z,2.85
2022-08-25T18:10:42.364Z,2.50
2022-08-25T18:13:09.265Z,3.35
2022-08-25T18:15:37.575Z,2.75
2022-08-25T18:18:10.564Z,2.67
2022-08-25T18:20:40.102Z,2.85
2022-08-25T18:23:09.795Z,2.60
2022-08-25T18:25:37.180Z,2.90
2022-08-25T18:28:09.091Z,3.47
2022-08-25T18:30:36.717Z,2.35
2022-08-25T18:33:04.738Z,2.63
2022-08-25T18:35:31.906Z,3.15
2022-08-25T18:38:17.531Z,4.13
2022-08-25T18:40:45.490Z,2.97
2022-08-25T18:43:14.584Z,3.97
2022-08-25T18:45:50.135Z,4.13
2022-08-25T18:48:26.473Z,4.38
2022-08-25T18:50:56.778Z,2.60
2022-08-25T18:53:30.385Z,2.60
2022-08-25T18:56:06.967Z,2.63
2022-08-25T18:58:34.570Z,2.67
2022-08-25T19:01:03.996Z,4.95
2022-08-25T19:03:31.814Z,3.08
2022-08-25T19:06:00.621Z,3.35
2022-08-25T19:08:27.629Z,3.33
2022-08-25T19:10:54.918Z,2.78
2022-08-25T19:13:22.703Z,3.67
2022-08-25T19:15:51.298Z,2.70
2022-08-25T19:18:25.997Z,2.58
2022-08-25T19:20:58.064Z,2.90
2022-08-25T19:23:26.281Z,2.85
2022-08-25T19:25:53.129Z,2.97
2022-08-25T19:28:20.002Z,2.67
2022-08-25T19:30:50.362Z,2.63
2022-08-25T19:33:42.750Z,2.88
2022-08-25T19:36:08.799Z,3.22
2022-08-25T19:38:36.920Z,4.35
2022-08-25T19:41:12.996Z,4.22
2022-08-25T19:43:50.498Z,3.75
2022-08-25T19:46:32.620Z,3.03
2022-08-25T19:49:06.816Z,4.85
2022-08-25T19:51:46.291Z,2.83
2022-08-25T19:54:16.413Z,3.08
2022-08-25T19:56:54.785Z,2.95
2022-08-25T19:59:40.467Z,3.50
2022-08-25T20:02:15.548Z,3.10
2022-08-25T20:04:49.496Z,3.20
2022-08-25T20:07:22.858Z,3.63
2022-08-25T20:09:52.572Z,3.77
2022-08-25T20:12:20.752Z,2.72
2022-08-25T20:14:49.235Z,2.85
2022-08-25T20:17:24.507Z,3.00
2022-08-25T20:19:58.506Z,2.95
2022-08-25T20:22:27.775Z,3.42
2022-08-25T20:25:22.290Z,3.58
2022-08-25T20:27:55.745Z,3.28
2022-08-25T20:30:28.437Z,3.50
2022-08-25T20:32:57.276Z,4.20
2022-08-25T20:35:27.047Z,4.22
2022-08-25T20:37:55.682Z,3.70
2022-08-25T20:40:26.129Z,3.22
2022-08-25T20:42:54.043Z,3.63
2022-08-25T20:45:21.879Z,5.30
2022-08-25T20:47:50.454Z,3.42
2022-08-25T20:50:18.222Z,3.75
2022-08-25T20:52:45.046Z,4.43
2022-08-25T20:55:12.518Z,4.32
2022-08-25T20:57:39.507Z,3.90
2022-08-25T21:00:07.709Z,3.97
2022-08-25T21:02:36.953Z,4.47
2022-08-25T21:05:05.784Z,4.28
2022-08-25T21:07:35.802Z,4.10
2022-08-25T21:10:17.740Z,3.55
2022-08-25T21:12:45.326Z,3.67
2022-08-25T21:15:17.988Z,4.15
2022-08-25T21:17:50.330Z,3.78
2022-08-25T21:20:18.368Z,4.90
2022-08-25T21:22:45.209Z,4.35
2022-08-25T21:25:25.799Z,3.50
2022-08-25T21:27:59.757Z,3.47
2022-08-25T21:30:26.635Z,4.05
2022-08-25T21:32:55.492Z,3.35
2022-08-25T21:35:23.613Z,4.03
2022-08-25T21:37:53.451Z,3.60
2022-08-25T21:40:21.793Z,3.50
2022-08-25T21:42:49.087Z,4.15
2022-08-25T21:45:16.958Z,3.75
2022-08-25T21:47:48.819Z,3.90
2022-08-25T21:50:15.816Z,3.53
2022-08-25T21:52:42.971Z,3.65
2022-08-25T21:55:15.945Z,3.65
2022-08-25T21:57:43.930Z,3.30
2022-08-25T22:00:12.607Z,3.72
2022-08-25T22:02:39.616Z,3.97
2022-08-25T22:05:11.449Z,3.33
2022-08-25T22:07:41.729Z,3.88
2022-08-25T22:10:16.714Z,4.03
2022-08-25T22:12:45.339Z,4.43
2022-08-25T22:15:13.728Z,4.55
2022-08-25T22:17:41.293Z,3.40
2022-08-25T22:20:09.609Z,5.10
2022-08-25T22:22:36.516Z,5.00
2022-08-25T22:25:03.908Z,5.80
2022-08-25T22:27:32.903Z,3.33
2022-08-25T22:30:00.921Z,4.60
2022-08-25T22:32:27.779Z,4.93
2022-08-25T22:34:54.842Z,4.40
2022-08-25T22:37:22.286Z,5.32
2022-08-25T22:39:52.977Z,4.88
2022-08-25T22:42:20.149Z,4.32
2022-08-25T22:44:53.914Z,4.53
2022-08-25T22:47:21.407Z,4.13
2022-08-25T22:49:48.812Z,3.60
2022-08-25T22:52:15.690Z,4.35
2022-08-25T22:54:42.474Z,4.07
2022-08-25T22:57:10.372Z,3.45
2022-08-25T22:59:38.279Z,3.28
2022-08-25T23:02:05.937Z,5.50
2022-08-25T23:04:33.462Z,3.92
2022-08-25T23:07:00.335Z,4.25
2022-08-25T23:09:27.231Z,5.65
2022-08-25T23:11:54.108Z,7.03
2022-08-25T23:14:21.753Z,5.35
2022-08-25T23:16:49.810Z,5.38
2022-08-25T23:19:17.121Z,4.05
2022-08-25T23:22:03.389Z,3.97
2022-08-25T23:24:31.769Z,5.25
2022-08-25T23:27:04.099Z,4.22
2022-08-25T23:29:34.219Z,4.40
2022-08-25T23:32:01.655Z,4.07
2022-08-25T23:34:28.706Z,5.70
2022-08-25T23:36:55.937Z,4.18
2022-08-25T23:39:23.071Z,3.67
2022-08-25T23:41:50.718Z,3.80
2022-08-25T23:44:18.977Z,4.22
2022-08-25T23:46:47.457Z,3.88
2022-08-25T23:49:18.665Z,4.95
2022-08-25T23:51:47.459Z,4.25
2022-08-25T23:54:14.733Z,4.35
2022-08-25T23:56:44.805Z,6.38
2022-08-25T23:59:20.087Z,4.38
